sensor_id;sensor_type;location;lat;lon;timestamp;P1;durP1;ratioP1;P2;durP2;ratioP2
32790;SDS011;19143;59.322;14.502;2023-04-07T00:00:34;5.57;;;3.67;;
32790;SDS011;19143;59.322;14.502;2023-04-07T00:03:01;4.07;;;3.30;;
32790;SDS011;19143;59.322;14.502;2023-04-07T00:05:31;4.23;;;3.50;;
32790;SDS011;19143;59.322;14.502;2023-04-07T00:07:58;6.63;;;3.60;;
32790;SDS011;19143;59.322;14.502;2023-04-07T00:10:24;4.60;;;3.57;;
32790;SDS011;19143;59.322;14.502;2023-04-07T00:12:52;5.60;;;3.80;;
32790;SDS011;19143;59.322;14.502;2023-04-07T00:15:19;5.53;;;3.27;;
32790;SDS011;19143;59.322;14.502;2023-04-07T00:17:46;7.27;;;3.57;;
32790;SDS011;19143;59.322;14.502;2023-04-07T00:20:13;4.20;;;3.47;;
32790;SDS011;19143;59.322;14.502;2023-04-07T00:22:40;3.87;;;3.23;;
32790;SDS011;19143;59.322;14.502;2023-04-07T00:25:07;4.83;;;3.70;;
32790;SDS011;19143;59.322;14.502;2023-04-07T00:27:36;3.60;;;3.27;;
32790;SDS011;19143;59.322;14.502;2023-04-07T00:30:05;6.90;;;3.30;;
32790;SDS011;19143;59.322;14.502;2023-04-07T00:32:32;3.20;;;3.00;;
32790;SDS011;19143;59.322;14.502;2023-04-07T00:34:59;3.60;;;3.30;;
32790;SDS011;19143;59.322;14.502;2023-04-07T00:37:28;5.20;;;3.47;;
32790;SDS011;19143;59.322;14.502;2023-04-07T00:39:55;2.90;;;2.70;;
32790;SDS011;19143;59.322;14.502;2023-04-07T00:42:24;3.63;;;3.33;;
32790;SDS011;19143;59.322;14.502;2023-04-07T00:44:51;3.70;;;3.37;;
32790;SDS011;19143;59.322;14.502;2023-04-07T00:47:19;5.03;;;3.30;;
32790;SDS011;19143;59.322;14.502;2023-04-07T00:49:46;3.37;;;3.07;;
32790;SDS011;19143;59.322;14.502;2023-04-07T00:52:12;3.33;;;3.03;;
32790;SDS011;19143;59.322;14.502;2023-04-07T00:54:40;2.97;;;2.77;;
32790;SDS011;19143;59.322;14.502;2023-04-07T00:57:07;5.07;;;3.23;;
32790;SDS011;19143;59.322;14.502;2023-04-07T00:59:34;3.17;;;2.87;;
32790;SDS011;19143;59.322;14.502;2023-04-07T01:02:02;12.63;;;3.40;;
32790;SDS011;19143;59.322;14.502;2023-04-07T01:04:34;4.20;;;3.10;;
32790;SDS011;19143;59.322;14.502;2023-04-07T01:07:04;4.50;;;3.30;;
32790;SDS011;19143;59.322;14.502;2023-04-07T01:09:35;4.03;;;3.33;;
32790;SDS011;19143;59.322;14.502;2023-04-07T01:12:04;4.20;;;3.13;;
32790;SDS011;19143;59.322;14.502;2023-04-07T01:14:32;7.83;;;3.33;;
32790;SDS011;19143;59.322;14.502;2023-04-07T01:17:02;4.53;;;3.00;;
32790;SDS011;19143;59.322;14.502;2023-04-07T01:19:35;3.07;;;2.60;;
32790;SDS011;19143;59.322;14.502;2023-04-07T01:22:02;4.37;;;3.03;;
32790;SDS011;19143;59.322;14.502;2023-04-07T01:24:45;4.07;;;3.30;;
32790;SDS011;19143;59.322;14.502;2023-04-07T01:27:18;4.07;;;3.20;;
32790;SDS011;19143;59.322;14.502;2023-04-07T01:29:48;5.90;;;3.40;;
32790;SDS011;19143;59.322;14.502;2023-04-07T01:32:15;3.53;;;3.23;;
32790;SDS011;19143;59.322;14.502;2023-04-07T01:34:44;3.50;;;3.03;;
32790;SDS011;19143;59.322;14.502;2023-04-07T01:37:12;6.80;;;3.63;;
32790;SDS011;19143;59.322;14.502;2023-04-07T01:39:40;4.93;;;2.87;;
32790;SDS011;19143;59.322;14.502;2023-04-07T01:42:07;4.93;;;3.37;;
32790;SDS011;19143;59.322;14.502;2023-04-07T01:44:34;4.27;;;3.43;;
32790;SDS011;19143;59.322;14.502;2023-04-07T01:47:09;4.73;;;3.63;;
32790;SDS011;19143;59.322;14.502;2023-04-07T01:49:36;4.43;;;3.67;;
32790;SDS011;19143;59.322;14.502;2023-04-07T01:52:03;3.87;;;3.17;;
32790;SDS011;19143;59.322;14.502;2023-04-07T01:54:30;3.70;;;3.40;;
32790;SDS011;19143;59.322;14.502;2023-04-07T01:56:57;5.37;;;3.50;;
32790;SDS011;19143;59.322;14.502;2023-04-07T01:59:24;4.57;;;3.33;;
32790;SDS011;19143;59.322;14.502;2023-04-07T02:01:50;3.47;;;3.10;;
32790;SDS011;19143;59.322;14.502;2023-04-07T02:04:20;4.37;;;3.23;;
32790;SDS011;19143;59.322;14.502;2023-04-07T02:06:49;3.50;;;3.20;;
32790;SDS011;19143;59.322;14.502;2023-04-07T02:09:16;3.33;;;3.03;;
32790;SDS011;19143;59.322;14.502;2023-04-07T02:11:45;3.43;;;3.13;;
32790;SDS011;19143;59.322;14.502;2023-04-07T02:14:13;3.63;;;3.10;;
32790;SDS011;19143;59.322;14.502;2023-04-07T02:16:40;5.73;;;3.47;;
32790;SDS011;19143;59.322;14.502;2023-04-07T02:19:07;2.80;;;2.60;;
32790;SDS011;19143;59.322;14.502;2023-04-07T02:21:36;2.90;;;2.63;;
32790;SDS011;19143;59.322;14.502;2023-04-07T02:24:04;3.83;;;3.00;;
32790;SDS011;19143;59.322;14.502;2023-04-07T02:26:32;3.67;;;2.80;;
32790;SDS011;19143;59.322;14.502;2023-04-07T02:28:59;6.73;;;2.70;;
32790;SDS011;19143;59.322;14.502;2023-04-07T02:31:25;2.80;;;2.60;;
32790;SDS011;19143;59.322;14.502;2023-04-07T02:33:52;4.53;;;2.60;;
32790;SDS011;19143;59.322;14.502;2023-04-07T02:36:19;2.90;;;2.70;;
32790;SDS011;19143;59.322;14.502;2023-04-07T02:38:47;6.00;;;2.90;;
32790;SDS011;19143;59.322;14.502;2023-04-07T02:41:13;4.60;;;3.20;;
32790;SDS011;19143;59.322;14.502;2023-04-07T02:43:40;2.77;;;2.57;;
32790;SDS011;19143;59.322;14.502;2023-04-07T02:46:06;2.63;;;2.43;;
32790;SDS011;19143;59.322;14.502;2023-04-07T02:48:33;2.70;;;2.50;;
32790;SDS011;19143;59.322;14.502;2023-04-07T02:50:59;3.07;;;2.47;;
32790;SDS011;19143;59.322;14.502;2023-04-07T02:53:26;2.80;;;2.60;;
32790;SDS011;19143;59.322;14.502;2023-04-07T02:55:54;3.33;;;3.00;;
32790;SDS011;19143;59.322;14.502;2023-04-07T02:58:20;2.83;;;2.60;;
32790;SDS011;19143;59.322;14.502;2023-04-07T03:00:47;2.50;;;2.30;;
32790;SDS011;19143;59.322;14.502;2023-04-07T03:03:14;4.80;;;2.97;;
32790;SDS011;19143;59.322;14.502;2023-04-07T03:05:40;2.67;;;2.47;;
32790;SDS011;19143;59.322;14.502;2023-04-07T03:08:07;2.73;;;2.53;;
32790;SDS011;19143;59.322;14.502;2023-04-07T03:10:34;2.37;;;2.17;;
32790;SDS011;19143;59.322;14.502;2023-04-07T03:13:02;3.57;;;2.97;;
32790;SDS011;19143;59.322;14.502;2023-04-07T03:15:29;4.73;;;2.70;;
32790;SDS011;19143;59.322;14.502;2023-04-07T03:17:55;3.77;;;2.70;;
32790;SDS011;19143;59.322;14.502;2023-04-07T03:20:22;6.07;;;3.00;;
32790;SDS011;19143;59.322;14.502;2023-04-07T03:22:48;5.47;;;2.57;;
32790;SDS011;19143;59.322;14.502;2023-04-07T03:25:15;2.63;;;2.43;;
32790;SDS011;19143;59.322;14.502;2023-04-07T03:27:42;3.63;;;3.07;;
32790;SDS011;19143;59.322;14.502;2023-04-07T03:30:10;2.40;;;2.20;;
32790;SDS011;19143;59.322;14.502;2023-04-07T03:32:37;2.53;;;2.33;;
32790;SDS011;19143;59.322;14.502;2023-04-07T03:35:04;3.00;;;2.50;;
32790;SDS011;19143;59.322;14.502;2023-04-07T03:37:31;2.33;;;2.23;;
32790;SDS011;19143;59.322;14.502;2023-04-07T03:39:57;2.77;;;2.43;;
32790;SDS011;19143;59.322;14.502;2023-04-07T03:42:24;3.53;;;2.43;;
32790;SDS011;19143;59.322;14.502;2023-04-07T03:44:50;5.07;;;3.00;;
32790;SDS011;19143;59.322;14.502;2023-04-07T03:47:18;2.83;;;2.63;;
32790;SDS011;19143;59.322;14.502;2023-04-07T03:49:46;2.80;;;2.60;;
32790;SDS011;19143;59.322;14.502;2023-04-07T03:52:13;2.70;;;2.50;;
32790;SDS011;19143;59.322;14.502;2023-04-07T03:54:39;2.67;;;2.43;;
32790;SDS011;19143;59.322;14.502;2023-04-07T03:57:06;4.50;;;2.57;;
32790;SDS011;19143;59.322;14.502;2023-04-07T03:59:34;2.77;;;2.53;;
32790;SDS011;19143;59.322;14.502;2023-04-07T04:02:00;2.90;;;2.53;;
32790;SDS011;19143;59.322;14.502;2023-04-07T04:04:29;3.17;;;2.90;;
32790;SDS011;19143;59.322;14.502;2023-04-07T04:06:55;2.73;;;2.53;;
32790;SDS011;19143;59.322;14.502;2023-04-07T04:09:22;6.13;;;3.00;;
32790;SDS011;19143;59.322;14.502;2023-04-07T04:11:49;3.30;;;2.87;;
32790;SDS011;19143;59.322;14.502;2023-04-07T04:14:15;2.67;;;2.47;;
32790;SDS011;19143;59.322;14.502;2023-04-07T04:16:42;3.33;;;3.10;;
32790;SDS011;19143;59.322;14.502;2023-04-07T04:19:08;2.80;;;2.47;;
32790;SDS011;19143;59.322;14.502;2023-04-07T04:21:37;4.67;;;3.10;;
32790;SDS011;19143;59.322;14.502;2023-04-07T04:24:04;2.87;;;2.67;;
32790;SDS011;19143;59.322;14.502;2023-04-07T04:26:30;4.80;;;3.30;;
32790;SDS011;19143;59.322;14.502;2023-04-07T04:28:57;3.40;;;2.80;;
32790;SDS011;19143;59.322;14.502;2023-04-07T04:31:23;5.67;;;2.77;;
32790;SDS011;19143;59.322;14.502;2023-04-07T04:33:50;6.60;;;3.00;;
32790;SDS011;19143;59.322;14.502;2023-04-07T04:36:17;2.47;;;2.27;;
32790;SDS011;19143;59.322;14.502;2023-04-07T04:38:45;2.90;;;2.60;;
32790;SDS011;19143;59.322;14.502;2023-04-07T04:41:11;6.13;;;2.90;;
32790;SDS011;19143;59.322;14.502;2023-04-07T04:43:38;3.23;;;2.93;;
32790;SDS011;19143;59.322;14.502;2023-04-07T04:46:05;4.33;;;3.50;;
32790;SDS011;19143;59.322;14.502;2023-04-07T04:48:32;4.63;;;3.20;;
32790;SDS011;19143;59.322;14.502;2023-04-07T04:50:58;3.33;;;3.03;;
32790;SDS011;19143;59.322;14.502;2023-04-07T04:53:25;2.90;;;2.63;;
32790;SDS011;19143;59.322;14.502;2023-04-07T04:55:53;3.53;;;3.23;;
32790;SDS011;19143;59.322;14.502;2023-04-07T04:58:20;5.63;;;3.33;;
32790;SDS011;19143;59.322;14.502;2023-04-07T05:00:46;3.33;;;3.00;;
32790;SDS011;19143;59.322;14.502;2023-04-07T05:03:13;3.50;;;3.20;;
32790;SDS011;19143;59.322;14.502;2023-04-07T05:05:39;3.23;;;2.93;;
32790;SDS011;19143;59.322;14.502;2023-04-07T05:08:07;3.00;;;2.70;;
32790;SDS011;19143;59.322;14.502;2023-04-07T05:10:36;5.40;;;3.10;;
32790;SDS011;19143;59.322;14.502;2023-04-07T05:13:04;4.10;;;2.97;;
32790;SDS011;19143;59.322;14.502;2023-04-07T05:15:31;4.93;;;4.03;;
32790;SDS011;19143;59.322;14.502;2023-04-07T05:17:58;5.23;;;4.00;;
32790;SDS011;19143;59.322;14.502;2023-04-07T05:20:24;4.20;;;3.80;;
32790;SDS011;19143;59.322;14.502;2023-04-07T05:22:51;3.87;;;3.57;;
32790;SDS011;19143;59.322;14.502;2023-04-07T05:25:17;4.17;;;3.47;;
32790;SDS011;19143;59.322;14.502;2023-04-07T05:27:44;9.67;;;3.40;;
32790;SDS011;19143;59.322;14.502;2023-04-07T05:30:13;5.20;;;3.50;;
32790;SDS011;19143;59.322;14.502;2023-04-07T05:32:40;4.17;;;3.40;;
32790;SDS011;19143;59.322;14.502;2023-04-07T05:35:08;6.03;;;3.40;;
32790;SDS011;19143;59.322;14.502;2023-04-07T05:37:34;5.97;;;3.60;;
32790;SDS011;19143;59.322;14.502;2023-04-07T05:40:01;3.70;;;3.20;;
32790;SDS011;19143;59.322;14.502;2023-04-07T05:42:27;3.43;;;2.90;;
32790;SDS011;19143;59.322;14.502;2023-04-07T05:44:54;3.33;;;3.00;;
32790;SDS011;19143;59.322;14.502;2023-04-07T05:47:22;4.33;;;3.33;;
32790;SDS011;19143;59.322;14.502;2023-04-07T05:49:49;3.47;;;3.20;;
32790;SDS011;19143;59.322;14.502;2023-04-07T05:52:17;3.87;;;3.10;;
32790;SDS011;19143;59.322;14.502;2023-04-07T05:54:44;7.27;;;3.00;;
32790;SDS011;19143;59.322;14.502;2023-04-07T05:57:10;3.63;;;3.33;;
32790;SDS011;19143;59.322;14.502;2023-04-07T05:59:37;6.37;;;3.07;;
32790;SDS011;19143;59.322;14.502;2023-04-07T06:02:03;3.37;;;3.03;;
32790;SDS011;19143;59.322;14.502;2023-04-07T06:04:31;6.10;;;3.60;;
32790;SDS011;19143;59.322;14.502;2023-04-07T06:06:59;5.47;;;3.50;;
32790;SDS011;19143;59.322;14.502;2023-04-07T06:09:26;3.57;;;3.27;;
32790;SDS011;19143;59.322;14.502;2023-04-07T06:11:52;3.30;;;2.93;;
32790;SDS011;19143;59.322;14.502;2023-04-07T06:14:19;4.97;;;3.47;;
32790;SDS011;19143;59.322;14.502;2023-04-07T06:16:45;5.53;;;3.80;;
32790;SDS011;19143;59.322;14.502;2023-04-07T06:19:12;3.97;;;3.60;;
32790;SDS011;19143;59.322;14.502;2023-04-07T06:21:40;4.57;;;3.67;;
32790;SDS011;19143;59.322;14.502;2023-04-07T06:24:07;4.03;;;3.20;;
32790;SDS011;19143;59.322;14.502;2023-04-07T06:26:33;3.50;;;3.20;;
32790;SDS011;19143;59.322;14.502;2023-04-07T06:29:00;6.37;;;3.60;;
32790;SDS011;19143;59.322;14.502;2023-04-07T06:31:27;11.70;;;3.83;;
32790;SDS011;19143;59.322;14.502;2023-04-07T06:33:53;5.30;;;3.43;;
32790;SDS011;19143;59.322;14.502;2023-04-07T06:36:20;4.27;;;3.50;;
32790;SDS011;19143;59.322;14.502;2023-04-07T06:38:49;5.07;;;3.73;;
32790;SDS011;19143;59.322;14.502;2023-04-07T06:41:21;4.00;;;3.60;;
32790;SDS011;19143;59.322;14.502;2023-04-07T06:43:48;7.17;;;3.27;;
32790;SDS011;19143;59.322;14.502;2023-04-07T06:46:16;4.10;;;3.67;;
32790;SDS011;19143;59.322;14.502;2023-04-07T06:48:42;4.47;;;3.40;;
32790;SDS011;19143;59.322;14.502;2023-04-07T06:51:09;5.37;;;3.83;;
32790;SDS011;19143;59.322;14.502;2023-04-07T06:53:36;4.10;;;3.70;;
32790;SDS011;19143;59.322;14.502;2023-04-07T06:56:04;5.00;;;3.60;;
32790;SDS011;19143;59.322;14.502;2023-04-07T06:58:31;4.87;;;3.43;;
32790;SDS011;19143;59.322;14.502;2023-04-07T07:00:58;7.10;;;3.83;;
32790;SDS011;19143;59.322;14.502;2023-04-07T07:03:25;6.27;;;3.83;;
32790;SDS011;19143;59.322;14.502;2023-04-07T07:05:52;11.30;;;4.17;;
32790;SDS011;19143;59.322;14.502;2023-04-07T07:08:20;4.40;;;3.80;;
32790;SDS011;19143;59.322;14.502;2023-04-07T07:10:47;5.90;;;4.30;;
32790;SDS011;19143;59.322;14.502;2023-04-07T07:13:15;4.07;;;3.67;;
32790;SDS011;19143;59.322;14.502;2023-04-07T07:15:42;10.40;;;3.70;;
32790;SDS011;19143;59.322;14.502;2023-04-07T07:18:08;8.23;;;4.10;;
32790;SDS011;19143;59.322;14.502;2023-04-07T07:20:36;6.10;;;4.33;;
32790;SDS011;19143;59.322;14.502;2023-04-07T07:23:03;4.07;;;3.57;;
32790;SDS011;19143;59.322;14.502;2023-04-07T07:25:29;10.93;;;5.60;;
32790;SDS011;19143;59.322;14.502;2023-04-07T07:27:56;4.63;;;3.57;;
32790;SDS011;19143;59.322;14.502;2023-04-07T07:30:24;5.10;;;3.77;;
32790;SDS011;19143;59.322;14.502;2023-04-07T07:32:51;16.47;;;4.17;;
32790;SDS011;19143;59.322;14.502;2023-04-07T07:35:21;7.20;;;3.83;;
32790;SDS011;19143;59.322;14.502;2023-04-07T07:37:49;6.27;;;3.80;;
32790;SDS011;19143;59.322;14.502;2023-04-07T07:40:16;5.47;;;3.53;;
32790;SDS011;19143;59.322;14.502;2023-04-07T07:42:44;5.93;;;3.50;;
32790;SDS011;19143;59.322;14.502;2023-04-07T07:45:10;4.00;;;3.20;;
32790;SDS011;19143;59.322;14.502;2023-04-07T07:47:39;4.10;;;3.20;;
32790;SDS011;19143;59.322;14.502;2023-04-07T07:50:06;4.33;;;3.40;;
32790;SDS011;19143;59.322;14.502;2023-04-07T07:52:33;4.90;;;3.70;;
32790;SDS011;19143;59.322;14.502;2023-04-07T07:54:59;3.33;;;3.03;;
32790;SDS011;19143;59.322;14.502;2023-04-07T07:57:26;11.23;;;2.53;;
32790;SDS011;19143;59.322;14.502;2023-04-07T07:59:55;4.10;;;2.17;;
32790;SDS011;19143;59.322;14.502;2023-04-07T08:02:21;5.03;;;2.40;;
32790;SDS011;19143;59.322;14.502;2023-04-07T08:04:55;3.77;;;2.07;;
32790;SDS011;19143;59.322;14.502;2023-04-07T08:07:23;9.30;;;2.10;;
32790;SDS011;19143;59.322;14.502;2023-04-07T08:09:50;6.93;;;1.90;;
32790;SDS011;19143;59.322;14.502;2023-04-07T08:12:16;1.40;;;1.40;;
32790;SDS011;19143;59.322;14.502;2023-04-07T08:14:43;2.10;;;1.67;;
32790;SDS011;19143;59.322;14.502;2023-04-07T08:17:10;5.53;;;1.90;;
32790;SDS011;19143;59.322;14.502;2023-04-07T08:19:37;5.10;;;2.00;;
32790;SDS011;19143;59.322;14.502;2023-04-07T08:22:05;3.00;;;1.70;;
32790;SDS011;19143;59.322;14.502;2023-04-07T08:24:32;5.20;;;1.50;;
32790;SDS011;19143;59.322;14.502;2023-04-07T08:26:59;1.50;;;1.40;;
32790;SDS011;19143;59.322;14.502;2023-04-07T08:29:26;6.27;;;1.50;;
32790;SDS011;19143;59.322;14.502;2023-04-07T08:31:53;2.47;;;1.40;;
32790;SDS011;19143;59.322;14.502;2023-04-07T08:34:19;2.17;;;1.10;;
32790;SDS011;19143;59.322;14.502;2023-04-07T08:36:46;1.40;;;1.30;;
32790;SDS011;19143;59.322;14.502;2023-04-07T08:39:15;1.30;;;1.30;;
32790;SDS011;19143;59.322;14.502;2023-04-07T08:41:42;3.90;;;1.57;;
32790;SDS011;19143;59.322;14.502;2023-04-07T08:44:10;1.87;;;1.03;;
32790;SDS011;19143;59.322;14.502;2023-04-07T08:46:37;12.00;;;1.80;;
32790;SDS011;19143;59.322;14.502;2023-04-07T08:49:07;5.67;;;1.43;;
32790;SDS011;19143;59.322;14.502;2023-04-07T08:51:34;7.70;;;1.30;;
32790;SDS011;19143;59.322;14.502;2023-04-07T08:54:03;1.20;;;1.20;;
32790;SDS011;19143;59.322;14.502;2023-04-07T08:56:33;1.20;;;1.10;;
32790;SDS011;19143;59.322;14.502;2023-04-07T08:59:00;1.30;;;1.07;;
32790;SDS011;19143;59.322;14.502;2023-04-07T09:01:27;3.70;;;1.13;;
32790;SDS011;19143;59.322;14.502;2023-04-07T09:03:55;2.00;;;1.17;;
32790;SDS011;19143;59.322;14.502;2023-04-07T09:06:22;5.10;;;1.10;;
32790;SDS011;19143;59.322;14.502;2023-04-07T09:08:49;1.40;;;1.10;;
32790;SDS011;19143;59.322;14.502;2023-04-07T09:11:15;11.40;;;1.40;;
32790;SDS011;19143;59.322;14.502;2023-04-07T09:13:44;4.57;;;1.27;;
32790;SDS011;19143;59.322;14.502;2023-04-07T09:16:10;4.73;;;1.20;;
32790;SDS011;19143;59.322;14.502;2023-04-07T09:18:38;2.03;;;0.83;;
32790;SDS011;19143;59.322;14.502;2023-04-07T09:21:05;1.20;;;1.10;;
32790;SDS011;19143;59.322;14.502;2023-04-07T09:23:32;1.20;;;1.20;;
32790;SDS011;19143;59.322;14.502;2023-04-07T09:25:59;3.20;;;1.23;;
32790;SDS011;19143;59.322;14.502;2023-04-07T09:31:09;1.13;;;1.10;;
32790;SDS011;19143;59.322;14.502;2023-04-07T09:33:36;1.73;;;1.10;;
32790;SDS011;19143;59.322;14.502;2023-04-07T09:36:03;2.10;;;0.90;;
32790;SDS011;19143;59.322;14.502;2023-04-07T09:38:34;10.03;;;1.70;;
32790;SDS011;19143;59.322;14.502;2023-04-07T09:41:04;11.50;;;1.10;;
32790;SDS011;19143;59.322;14.502;2023-04-07T09:43:31;1.17;;;1.17;;
32790;SDS011;19143;59.322;14.502;2023-04-07T09:46:05;3.17;;;1.10;;
32790;SDS011;19143;59.322;14.502;2023-04-07T09:48:33;1.53;;;0.93;;
32790;SDS011;19143;59.322;14.502;2023-04-07T09:51:03;0.67;;;0.67;;
32790;SDS011;19143;59.322;14.502;2023-04-07T09:53:36;3.33;;;0.93;;
32790;SDS011;19143;59.322;14.502;2023-04-07T09:56:06;1.20;;;1.20;;
32790;SDS011;19143;59.322;14.502;2023-04-07T09:58:33;2.80;;;1.07;;
32790;SDS011;19143;59.322;14.502;2023-04-07T10:01:00;4.07;;;1.30;;
32790;SDS011;19143;59.322;14.502;2023-04-07T10:03:27;4.60;;;1.20;;
32790;SDS011;19143;59.322;14.502;2023-04-07T10:05:55;1.07;;;1.07;;
32790;SDS011;19143;59.322;14.502;2023-04-07T10:08:21;2.10;;;0.93;;
32790;SDS011;19143;59.322;14.502;2023-04-07T10:10:48;14.60;;;1.67;;
32790;SDS011;19143;59.322;14.502;2023-04-07T10:13:15;4.83;;;1.33;;
32790;SDS011;19143;59.322;14.502;2023-04-07T10:15:42;18.53;;;1.40;;
32790;SDS011;19143;59.322;14.502;2023-04-07T10:18:09;2.10;;;1.10;;
32790;SDS011;19143;59.322;14.502;2023-04-07T10:20:35;1.57;;;1.07;;
32790;SDS011;19143;59.322;14.502;2023-04-07T10:23:08;4.37;;;1.40;;
32790;SDS011;19143;59.322;14.502;2023-04-07T10:25:38;0.90;;;0.90;;
32790;SDS011;19143;59.322;14.502;2023-04-07T10:28:06;0.90;;;0.90;;
32790;SDS011;19143;59.322;14.502;2023-04-07T10:30:33;2.00;;;1.37;;
32790;SDS011;19143;59.322;14.502;2023-04-07T10:33:00;3.50;;;1.30;;
32790;SDS011;19143;59.322;14.502;2023-04-07T10:35:27;1.60;;;1.23;;
32790;SDS011;19143;59.322;14.502;2023-04-07T10:38:09;3.70;;;1.20;;
32790;SDS011;19143;59.322;14.502;2023-04-07T10:40:37;1.07;;;1.07;;
32790;SDS011;19143;59.322;14.502;2023-04-07T10:43:04;0.97;;;0.97;;
32790;SDS011;19143;59.322;14.502;2023-04-07T10:48:20;3.27;;;1.23;;
32790;SDS011;19143;59.322;14.502;2023-04-07T10:53:30;1.53;;;1.00;;
32790;SDS011;19143;59.322;14.502;2023-04-07T10:55:58;1.13;;;1.13;;
32790;SDS011;19143;59.322;14.502;2023-04-07T10:58:25;1.10;;;1.07;;
32790;SDS011;19143;59.322;14.502;2023-04-07T11:03:38;1.07;;;1.00;;
32790;SDS011;19143;59.322;14.502;2023-04-07T11:06:06;5.20;;;1.37;;
32790;SDS011;19143;59.322;14.502;2023-04-07T11:08:36;3.40;;;1.10;;
32790;SDS011;19143;59.322;14.502;2023-04-07T11:11:02;17.93;;;1.93;;
32790;SDS011;19143;59.322;14.502;2023-04-07T11:13:38;2.83;;;1.20;;
32790;SDS011;19143;59.322;14.502;2023-04-07T11:16:05;1.00;;;1.00;;
32790;SDS011;19143;59.322;14.502;2023-04-07T11:18:32;1.00;;;1.00;;
32790;SDS011;19143;59.322;14.502;2023-04-07T11:21:06;1.20;;;1.17;;
32790;SDS011;19143;59.322;14.502;2023-04-07T11:23:38;5.40;;;1.67;;
32790;SDS011;19143;59.322;14.502;2023-04-07T11:26:05;1.00;;;1.00;;
32790;SDS011;19143;59.322;14.502;2023-04-07T11:28:32;6.30;;;1.00;;
32790;SDS011;19143;59.322;14.502;2023-04-07T11:30:59;2.40;;;1.53;;
32790;SDS011;19143;59.322;14.502;2023-04-07T11:33:26;1.00;;;1.00;;
32790;SDS011;19143;59.322;14.502;2023-04-07T11:35:55;4.80;;;1.27;;
32790;SDS011;19143;59.322;14.502;2023-04-07T11:38:22;1.40;;;0.90;;
32790;SDS011;19143;59.322;14.502;2023-04-07T11:40:51;0.97;;;0.97;;
32790;SDS011;19143;59.322;14.502;2023-04-07T11:43:18;4.43;;;1.40;;
32790;SDS011;19143;59.322;14.502;2023-04-07T11:45:46;2.30;;;1.10;;
32790;SDS011;19143;59.322;14.502;2023-04-07T11:48:25;1.03;;;1.03;;
32790;SDS011;19143;59.322;14.502;2023-04-07T11:50:51;0.93;;;0.80;;
32790;SDS011;19143;59.322;14.502;2023-04-07T11:53:23;1.85;;;1.17;;
32790;SDS011;19143;59.322;14.502;2023-04-07T11:55:58;2.93;;;1.10;;
32790;SDS011;19143;59.322;14.502;2023-04-07T11:58:25;0.80;;;0.80;;
32790;SDS011;19143;59.322;14.502;2023-04-07T12:00:52;4.23;;;1.10;;
32790;SDS011;19143;59.322;14.502;2023-04-07T12:03:20;4.07;;;1.13;;
32790;SDS011;19143;59.322;14.502;2023-04-07T12:05:46;1.30;;;1.20;;
32790;SDS011;19143;59.322;14.502;2023-04-07T12:08:13;1.00;;;1.00;;
32790;SDS011;19143;59.322;14.502;2023-04-07T12:10:40;1.63;;;0.97;;
32790;SDS011;19143;59.322;14.502;2023-04-07T12:13:09;0.97;;;0.97;;
32790;SDS011;19143;59.322;14.502;2023-04-07T12:15:35;2.17;;;0.90;;
32790;SDS011;19143;59.322;14.502;2023-04-07T12:18:02;0.90;;;0.90;;
32790;SDS011;19143;59.322;14.502;2023-04-07T12:20:28;1.00;;;1.00;;
32790;SDS011;19143;59.322;14.502;2023-04-07T12:22:55;3.83;;;1.20;;
32790;SDS011;19143;59.322;14.502;2023-04-07T12:25:23;7.07;;;1.13;;
32790;SDS011;19143;59.322;14.502;2023-04-07T12:27:49;6.13;;;1.23;;
32790;SDS011;19143;59.322;14.502;2023-04-07T12:30:18;0.83;;;0.83;;
32790;SDS011;19143;59.322;14.502;2023-04-07T12:32:45;2.87;;;1.13;;
32790;SDS011;19143;59.322;14.502;2023-04-07T12:35:11;2.47;;;1.00;;
32790;SDS011;19143;59.322;14.502;2023-04-07T12:37:38;1.33;;;1.23;;
32790;SDS011;19143;59.322;14.502;2023-04-07T12:40:06;1.00;;;0.87;;
32790;SDS011;19143;59.322;14.502;2023-04-07T12:42:33;2.03;;;1.00;;
32790;SDS011;19143;59.322;14.502;2023-04-07T12:45:00;2.60;;;2.30;;
32790;SDS011;19143;59.322;14.502;2023-04-07T12:47:28;1.07;;;1.07;;
32790;SDS011;19143;59.322;14.502;2023-04-07T12:49:55;5.00;;;1.40;;
32790;SDS011;19143;59.322;14.502;2023-04-07T12:52:21;1.17;;;1.00;;
32790;SDS011;19143;59.322;14.502;2023-04-07T12:54:48;1.43;;;1.00;;
32790;SDS011;19143;59.322;14.502;2023-04-07T12:57:15;4.03;;;1.40;;
32790;SDS011;19143;59.322;14.502;2023-04-07T12:59:41;0.93;;;0.93;;
32790;SDS011;19143;59.322;14.502;2023-04-07T13:02:08;2.43;;;0.90;;
32790;SDS011;19143;59.322;14.502;2023-04-07T13:04:39;3.17;;;1.00;;
32790;SDS011;19143;59.322;14.502;2023-04-07T13:07:07;1.07;;;1.00;;
32790;SDS011;19143;59.322;14.502;2023-04-07T13:09:34;1.00;;;1.00;;
32790;SDS011;19143;59.322;14.502;2023-04-07T13:12:08;0.90;;;0.90;;
32790;SDS011;19143;59.322;14.502;2023-04-07T13:14:36;19.77;;;1.67;;
32790;SDS011;19143;59.322;14.502;2023-04-07T13:17:02;6.63;;;1.53;;
32790;SDS011;19143;59.322;14.502;2023-04-07T13:19:29;6.13;;;1.20;;
32790;SDS011;19143;59.322;14.502;2023-04-07T13:21:57;1.20;;;1.20;;
32790;SDS011;19143;59.322;14.502;2023-04-07T13:24:24;0.83;;;0.83;;
32790;SDS011;19143;59.322;14.502;2023-04-07T13:26:51;4.33;;;0.90;;
32790;SDS011;19143;59.322;14.502;2023-04-07T13:29:18;1.63;;;1.30;;
32790;SDS011;19143;59.322;14.502;2023-04-07T13:31:48;3.43;;;1.27;;
32790;SDS011;19143;59.322;14.502;2023-04-07T13:34:14;1.97;;;1.20;;
32790;SDS011;19143;59.322;14.502;2023-04-07T13:36:41;1.20;;;1.20;;
32790;SDS011;19143;59.322;14.502;2023-04-07T13:39:10;1.30;;;1.20;;
32790;SDS011;19143;59.322;14.502;2023-04-07T13:41:37;5.80;;;1.20;;
32790;SDS011;19143;59.322;14.502;2023-04-07T13:44:03;9.00;;;1.27;;
32790;SDS011;19143;59.322;14.502;2023-04-07T13:46:37;2.50;;;1.87;;
32790;SDS011;19143;59.322;14.502;2023-04-07T13:49:10;1.50;;;1.10;;
32790;SDS011;19143;59.322;14.502;2023-04-07T13:51:39;1.37;;;1.13;;
32790;SDS011;19143;59.322;14.502;2023-04-07T13:54:05;6.63;;;1.30;;
32790;SDS011;19143;59.322;14.502;2023-04-07T13:56:33;8.10;;;1.20;;
32790;SDS011;19143;59.322;14.502;2023-04-07T13:59:02;1.00;;;1.00;;
32790;SDS011;19143;59.322;14.502;2023-04-07T14:01:30;7.67;;;1.17;;
32790;SDS011;19143;59.322;14.502;2023-04-07T14:03:57;4.87;;;1.77;;
32790;SDS011;19143;59.322;14.502;2023-04-07T14:06:24;5.23;;;1.30;;
32790;SDS011;19143;59.322;14.502;2023-04-07T14:08:51;1.00;;;1.00;;
32790;SDS011;19143;59.322;14.502;2023-04-07T14:11:18;2.20;;;1.20;;
32790;SDS011;19143;59.322;14.502;2023-04-07T14:13:47;2.53;;;1.00;;
32790;SDS011;19143;59.322;14.502;2023-04-07T14:16:15;3.30;;;0.90;;
32790;SDS011;19143;59.322;14.502;2023-04-07T14:18:42;1.23;;;1.23;;
32790;SDS011;19143;59.322;14.502;2023-04-07T14:21:09;9.20;;;1.30;;
32790;SDS011;19143;59.322;14.502;2023-04-07T14:23:36;1.10;;;1.10;;
32790;SDS011;19143;59.322;14.502;2023-04-07T14:26:02;2.07;;;1.90;;
32790;SDS011;19143;59.322;14.502;2023-04-07T14:28:29;1.20;;;1.10;;
32790;SDS011;19143;59.322;14.502;2023-04-07T14:30:57;1.90;;;1.20;;
32790;SDS011;19143;59.322;14.502;2023-04-07T14:33:24;7.93;;;1.43;;
32790;SDS011;19143;59.322;14.502;2023-04-07T14:35:50;6.67;;;1.10;;
32790;SDS011;19143;59.322;14.502;2023-04-07T14:38:17;3.57;;;1.30;;
32790;SDS011;19143;59.322;14.502;2023-04-07T14:40:48;3.80;;;1.67;;
32790;SDS011;19143;59.322;14.502;2023-04-07T14:43:15;1.03;;;1.03;;
32790;SDS011;19143;59.322;14.502;2023-04-07T14:45:41;1.67;;;1.57;;